Observations for LORIENT LANN BIHOUE, France (LFRH)

LFRH 242030Z AUTO 26010KT 5000 -DZ BR OVC011 12/11 Q1017 TEMPO RADZ BKN003 OVC010   
LFRH 242000Z AUTO 26008KT 9999 BKN014 OVC023 12/11 Q1017 TEMPO 4000 RADZ BKN003 OVC010  
LFRH 241930Z AUTO 25010KT 9999 SCT015 BKN024 OVC037 13/10 Q1017 TEMPO 4000 RADZ BKN003 OVC010   
LFRH 241900Z AUTO 26009KT 9999 BKN015 BKN030 OVC037 13/10 Q1017 TEMPO 4000 RADZ BKN003 OVC010   
LFRH 241830Z AUTO 25010KT 9999 BKN016 OVC031 13/10 Q1017 TEMPO 4000 RADZ BKN003 OVC010  
LFRH 241800Z AUTO 26010KT 9999 OVC016 13/10 Q1017 BECMG OVC010  
LFRH 241730Z AUTO 26011KT 9999 OVC018 13/09 Q1017 BECMG OVC010  
LFRH 241700Z AUTO 25012KT 9999 OVC021 13/09 Q1017 BECMG BKN008 OVC015   
LFRH 241630Z AUTO 24013KT 220V280 9999 OVC022 13/09 Q1018 BECMG BKN008 OVC015   
LFRH 241600Z AUTO 26012KT 9999 OVC022 14/09 Q1018 NOSIG 
LFRH 241530Z AUTO 25012KT 220V280 9999 BKN018 BKN023 14/10 Q1018 NOSIG  
LFRH 241500Z AUTO 24013KT 9999 BKN023 15/10 Q1018 NOSIG 
LFRH 241430Z AUTO 24012KT 9999 SCT018 BKN024 BKN029 15/10 Q1018 NOSIG   
LFRH 241400Z AUTO 24012KT 9999 BKN020 BKN026 14/09 Q1019 NOSIG  
LFRH 241330Z AUTO 24012KT 210V270 9999 SCT019 BKN024 15/09 Q1019 NOSIG  
LFRH 241300Z AUTO 24012KT 9999 SCT020 BKN026 14/09 Q1020 NOSIG  
LFRH 241230Z AUTO 24011KT 9999 BKN022 OVC027 14/09 Q1020 NOSIG  
LFRH 241200Z AUTO 23011KT 200V270 9999 BKN022 OVC027 14/09 Q1020 NOSIG  
LFRH 241130Z AUTO 24010KT 200V270 9999 BKN022 14/09 Q1020 NOSIG 
LFRH 241100Z AUTO 22009KT 180V270 9999 OVC023 15/09 Q1020 NOSIG 
LFRH 241030Z AUTO 24008KT 200V270 9999 BKN024 14/08 Q1020 NOSIG 
LFRH 241000Z AUTO 22007KT 190V250 9999 OVC022 14/09 Q1021 NOSIG 
LFRH 240930Z AUTO 26005KT 9999 OVC019 13/10 Q1021 NOSIG 
LFRH 240900Z AUTO 24005KT 210V270 9999 BKN017 OVC023 13/10 Q1021 NOSIG  
LFRH 240830Z AUTO VRB02KT 9999 BKN017 OVC024 13/09 Q1021 BECMG 25012KT  
LFRH 240800Z AUTO VRB01KT 9999 OVC023 12/10 Q1021 BECMG 25012KT 
LFRH 240730Z AUTO VRB02KT 9999 OVC023 10/09 Q1021 BECMG 25012KT 
LFRH 240700Z AUTO 06002KT 9999 OVC020 09/08 Q1021 NOSIG 
LFRH 240630Z AUTO 07002KT 9999 OVC018 08/07 Q1021 NOSIG 
LFRH 240600Z AUTO 05003KT 9999 OVC020 07/07 Q1021 NOSIG 
LFRH 240530Z AUTO 06002KT 9999 OVC019 07/06 Q1020 NOSIG 
LFRH 240500Z AUTO 05002KT 9999 BKN018 06/05 Q1020 NOSIG 
LFRH 240430Z AUTO 08001KT CAVOK 06/05 Q1020 NOSIG   
LFRH 240400Z AUTO 11002KT CAVOK 05/05 Q1020 NOSIG   
LFRH 240330Z AUTO 07001KT CAVOK 06/05 Q1020 NOSIG   
LFRH 240300Z AUTO 00000KT CAVOK 06/05 Q1021 NOSIG   
LFRH 240230Z AUTO 00000KT CAVOK 06/05 Q1021 NOSIG   
LFRH 240200Z AUTO 13002KT CAVOK 06/05 Q1021 NOSIG   
LFRH 240130Z AUTO 00000KT CAVOK 06/05 Q1021 NOSIG   
LFRH 240100Z AUTO 35002KT CAVOK 07/05 Q1021 NOSIG   
LFRH 240030Z AUTO 33003KT CAVOK 07/05 Q1021 NOSIG   
LFRH 240000Z AUTO 33003KT CAVOK 07/05 Q1022 NOSIG   
LFRH 232330Z AUTO 34002KT CAVOK 07/05 Q1022 NOSIG   
LFRH 232300Z AUTO 31002KT CAVOK 08/06 Q1022 TEMPO 2000 BR   
LFRH 232230Z AUTO 30002KT CAVOK 08/06 Q1022 TEMPO 2000 BR   
LFRH 232200Z AUTO 30003KT CAVOK 08/06 Q1022 NOSIG   
LFRH 232130Z AUTO 29004KT CAVOK 08/06 Q1022 NOSIG   
LFRH 232100Z AUTO 29004KT CAVOK 09/06 Q1022 NOSIG   
LFRH 232030Z AUTO 29004KT CAVOK 09/06 Q1022 NOSIG   
LFRH 232000Z AUTO 29005KT CAVOK 10/06 Q1022 NOSIG